• Join FlightAware (Why Join?)
  • Login
  • US Flag 
11:32AM EST


 

Airport Tracker/Info


-or-


 

Live Flight TrackerFlight Track Log ✈ SWA641 ✈ 22-Apr-2013 ✈ KMDW - KMSP

Flight Track Log - Related Links

Times and Time Zones

All times are in EDT time to prevent confusion due to time zone crossing. See the SWA641 flight status page for this flight to view local times or setup timezone preferences in your user account.

Time Position Orientation Groundspeed Altitude Reporting Facility
EDT Latitude Longitude Course Direction KTS MPH feet Rate Location/Type
08:51AM 41.8167 -87.7667 14° North 246 283 3,000  Level Chicago TRACON
08:52AM 41.8000 -87.6833 105° East 242 278 4,000 540 Climbing Chicago TRACON
08:52AM 41.8206 -87.6139 68° East 252 290 4,000  Level Chicago Center
08:53AM 41.8514 -87.5258 65° Northeast 258 297 4,000 660 Level Chicago Center
08:54AM 41.9044 -87.4558 44° Northeast 276 318 5,400 2,580 Climbing Chicago Center
08:55AM 41.9786 -87.5058 333° Northwest 274 315 9,400 3,360 Climbing Chicago Center
08:56AM 42.0383 -87.5769 319° Northwest 286 329 12,400 2,640 Climbing Chicago Center
08:58AM 42.1042 -87.6497 321° Northwest 304 350 14,900 1,260 Climbing Chicago Center
08:59AM 42.1703 -87.7267 319° Northwest 314 361 15,000 300 Climbing Chicago Center
09:00AM 42.2556 -87.7569 345° North 322 371 15,600 1,500 Climbing Chicago Center
09:01AM 42.3614 -87.8219 336° Northwest 368 423 18,200 2,580 Climbing Chicago Center
09:02AM 42.4592 -87.8814 336° Northwest 383 441 21,000 2,580 Climbing Chicago Center
09:03AM 42.5514 -87.9639 327° Northwest 399 459 23,600 2,460 Climbing Chicago Center
09:04AM 42.6322 -88.0669 317° Northwest 399 459 26,200 2,700 Climbing Chicago Center
09:05AM 42.7275 -88.1900 317° Northwest 403 464 29,200 2,580 Climbing Chicago Center
09:06AM 42.8078 -88.2914 317° Northwest 394 453 31,600 1,320 Climbing Chicago Center
09:07AM 42.8878 -88.3922 317° Northwest 391 450 32,000 180 Climbing Chicago Center
09:08AM 42.9683 -88.4972 316° Northwest 398 458 32,000  Level Chicago Center
09:09AM 43.0475 -88.5992 317° Northwest 391 450 32,000  Level Chicago Center
09:10AM 43.1253 -88.7003 317° Northwest 385 443 32,000  Level Chicago Center
09:11AM 43.2031 -88.8008 317° Northwest 382 440 32,000  Level Chicago Center
09:12AM 43.2814 -88.9033 316° Northwest 385 443 32,000  Level Chicago Center
09:13AM 43.3722 -89.0219 317° Northwest 384 442 32,000  Level Chicago Center
09:14AM 43.4506 -89.1239 317° Northwest 384 442 32,000  Level Chicago Center
09:15AM 43.5278 -89.2264 316° Northwest 384 442 32,000  Level Chicago Center
09:16AM 43.6053 -89.3294 316° Northwest 387 445 32,000  Level Chicago Center
09:17AM 43.6967 -89.4514 316° Northwest 389 448 32,000  Level Minneapolis Center
09:18AM 43.7753 -89.5569 316° Northwest 392 451 32,000  Level Minneapolis Center
09:19AM 43.8539 -89.6606 316° Northwest 391 450 32,000  Level Minneapolis Center
09:20AM 43.9458 -89.7847 316° Northwest 393 452 32,000  Level Minneapolis Center
09:21AM 44.0239 -89.8906 316° Northwest 394 453 32,000  Level Minneapolis Center
09:22AM 44.0992 -89.9997 314° West 391 450 32,000  Level Minneapolis Center
09:23AM 44.1633 -90.1206 307° West 389 448 32,000  Level Minneapolis Center
09:24AM 44.2303 -90.2392 308° West 388 447 32,000  Level Minneapolis Center
09:25AM 44.2950 -90.3611 307° West 390 449 32,000  Level Minneapolis Center
09:26AM 44.3619 -90.4811 308° West 391 450 32,000  Level Minneapolis Center
09:28AM 44.4272 -90.6017 307° West 389 448 32,000  Level Minneapolis Center
09:29AM 44.5044 -90.7725 302° West 391 450 32,000  Level Minneapolis Center
09:30AM 44.5528 -90.9056 297° West 386 444 32,000  Level Minneapolis Center
09:31AM 44.6036 -91.0417 298° West 384 442 32,000 -1,200 Level Minneapolis Center
09:32AM 44.6517 -91.1744 297° West 384 442 29,600 -2,280 Descending Minneapolis Center
09:33AM 44.6989 -91.3056 297° West 381 438 27,400 -2,100 Descending Minneapolis Center
09:34AM 44.7456 -91.4308 298° West 370 426 25,300 -2,040 Descending Minneapolis Center
09:35AM 44.7886 -91.5539 296° West 358 412 23,300 -1,980 Descending Minneapolis Center
09:36AM 44.8328 -91.6750 297° West 352 405 21,300 -1,980 Descending Minneapolis Center
09:37AM 44.8756 -91.7989 296° West 352 405 19,300 -2,160 Descending Minneapolis Center
09:38AM 44.9289 -91.9186 302° West 348 400 17,400 -2,280 Descending FAA TRACON SMA TRACON (SMA)
09:38AM 44.9403 -91.9567 293° West 350 403 16,700 -2,100 Descending FAA TRACON SMA TRACON (SMA)
09:38AM 44.9522 -91.9944 294° West 348 400 16,000 -2,280 Descending FAA TRACON SMA TRACON (SMA)
09:39AM 44.9681 -92.0419 295° West 349 402 15,200 -2,280 Descending FAA TRACON SMA TRACON (SMA)
09:39AM 44.9833 -92.0797 300° West 350 403 14,500 -1,920 Descending FAA TRACON SMA TRACON (SMA)
09:39AM 44.9953 -92.1167 295° West 346 398 13,900 -2,340 Descending FAA TRACON SMA TRACON (SMA)
09:40AM 45.0111 -92.1628 296° West 342 394 13,000 -2,280 Descending FAA TRACON SMA TRACON (SMA)
09:40AM 45.0242 -92.2000 296° West 340 391 12,400 -1,800 Descending FAA TRACON SMA TRACON (SMA)
09:40AM 45.0375 -92.2367 297° West 339 390 11,800 -2,100 Descending FAA TRACON SMA TRACON (SMA)
09:41AM 45.0481 -92.2819 288° West 330 380 11,000 -1,200 Descending FAA TRACON SMA TRACON (SMA)
09:41AM 45.0481 -92.3192 270° West 318 366 11,000 -180 Level FAA TRACON SMA TRACON (SMA)
09:41AM 45.0431 -92.3553 259° West 306 352 10,900  Descending FAA TRACON SMA TRACON (SMA)
09:42AM 45.0344 -92.3989 254° West 300 345 11,000 -180 Climbing FAA TRACON SMA TRACON (SMA)
09:42AM 45.0242 -92.4308 246° West 295 339 10,800 -1,080 Descending FAA TRACON SMA TRACON (SMA)
09:42AM 45.0061 -92.4658 234° Southwest 288 331 10,300 -1,200 Descending FAA TRACON SMA TRACON (SMA)
09:43AM 44.9936 -92.4936 238° Southwest 278 320 10,000 -900 Descending FAA TRACON SMA TRACON (SMA)
09:43AM 44.9803 -92.5206 235° Southwest 273 314 9,700 -960 Descending FAA TRACON SMA TRACON (SMA)
09:43AM 44.9678 -92.5475 237° Southwest 269 310 9,400 -1,080 Descending FAA TRACON SMA TRACON (SMA)
09:44AM 44.9517 -92.5806 235° Southwest 266 306 9,000 -1,200 Descending FAA TRACON SMA TRACON (SMA)
09:44AM 44.9389 -92.6069 236° Southwest 265 305 8,600 -1,080 Descending FAA TRACON SMA TRACON (SMA)
09:44AM 44.9256 -92.6336 235° Southwest 267 307 8,300 -1,080 Descending FAA TRACON SMA TRACON (SMA)
09:45AM 44.9089 -92.6667 235° Southwest 267 307 7,900 -1,080 Descending FAA TRACON SMA TRACON (SMA)
09:45AM 44.8836 -92.7189 236° Southwest 262 302 7,200 -1,140 Descending FAA TRACON SMA TRACON (SMA)
09:46AM 44.8678 -92.7508 235° Southwest 258 297 6,700 -1,620 Descending FAA TRACON SMA TRACON (SMA)
09:46AM 44.8556 -92.7767 236° Southwest 258 297 6,200 -1,680 Descending FAA TRACON SMA TRACON (SMA)
09:46AM 44.8425 -92.8025 235° Southwest 260 299 5,700 -1,500 Descending FAA TRACON SMA TRACON (SMA)
09:47AM 44.8267 -92.8350 236° Southwest 262 302 5,200 -1,080 Descending FAA TRACON SMA TRACON (SMA)
09:47AM 44.8147 -92.8603 236° Southwest 257 296 5,000 -480 Descending FAA TRACON SMA TRACON (SMA)
09:47AM 44.8025 -92.8853 235° Southwest 253 291 4,900 -780 Descending FAA TRACON SMA TRACON (SMA)
09:48AM 44.7875 -92.9153 235° Southwest 245 282 4,500 -900 Descending FAA TRACON SMA TRACON (SMA)
09:48AM 44.7775 -92.9406 241° Southwest 242 278 4,300 -600 Descending FAA TRACON SMA TRACON (SMA)
09:48AM 44.7803 -92.9672 278° West 241 277 4,100 -600 Descending FAA TRACON SMA TRACON (SMA)
09:49AM 44.7950 -92.9942 308° West 229 264 3,900 -300 Descending FAA TRACON SMA TRACON (SMA)
09:49AM 44.8039 -93.0167 299° West 217 250 3,900 -780 Level FAA TRACON SMA TRACON (SMA)
09:49AM 44.8133 -93.0372 303° West 206 237 3,400 -1,200 Descending FAA TRACON SMA TRACON (SMA)
09:50AM 44.8236 -93.0617 301° West 190 219 3,100 -900 Descending FAA TRACON SMA TRACON (SMA)
09:50AM 44.8314 -93.0789 302° West 174 200 2,800 -960 Descending FAA TRACON SMA TRACON (SMA)
09:50AM 44.8386 -93.0953 302° West 161 185 2,500 -960 Descending FAA TRACON SMA TRACON (SMA)
09:51AM 44.8450 -93.1103 301° West 149 171 2,200 -900 Descending FAA TRACON SMA TRACON (SMA)
09:51AM 44.8528 -93.1283 301° West 142 163 1,900 -780 Descending FAA TRACON SMA TRACON (SMA)
09:51AM 44.8594 -93.1428 303° West 140 161 1,700 -600 Descending FAA TRACON SMA TRACON (SMA)
09:52AM 44.8653 -93.1572 300° West 140 161 1,500 -900 Descending FAA TRACON SMA TRACON (SMA)
09:52AM 44.8731 -93.1753 301° West 138 159 1,100 -780 Descending FAA TRACON SMA TRACON (SMA)
09:52AM 44.8778 -93.1864 301° West 141 162 1,000 -360 Descending FAA TRACON SMA TRACON (SMA)
09:54AM 44.8667 -93.2167 245° Southwest  Level FlightAware Approximate
10:01AM 44.8820 -93.2218 245° Southwest  Level Estimated